Time;durP1;ratioP1;P1;durP2;ratioP2;P2;SDS_P1;SDS_P2;PMS_P1;PMS_P2;Temp;Humidity;BMP_temperature;BMP_pressure;BME280_temperature;BME280_humidity;BME280_pressure;Samples;Min_cycle;Max_cycle;Signal;HPM_P1;HPM_P2
2021/06/19 00:02:01;;;;;;;10.20;3.95;;;;;;;18.57;56.87;100342.66;5089453;28;20044;-71
2021/06/19 00:04:30;;;;;;;11.90;4.10;;;;;;;18.56;56.95;100341.81;5072738;28;20150;-73
2021/06/19 00:06:59;;;;;;;16.95;4.20;;;;;;;18.54;56.95;100345.75;5072725;28;20050;-73
2021/06/19 00:09:25;;;;;;;9.63;4.22;;;;;;;18.51;57.33;100352.34;5056441;28;20557;-73
2021/06/19 00:11:52;;;;;;;28.52;17.92;;;;;;;18.47;57.74;100353.75;5076124;28;20046;-73
2021/06/19 00:14:18;;;;;;;17.38;5.78;;;;;;;18.39;57.88;100340.41;5094085;28;20496;-73
2021/06/19 00:16:44;;;;;;;19.65;4.30;;;;;;;18.33;58.02;100335.75;5076012;28;20143;-74
2021/06/19 00:19:10;;;;;;;22.92;5.38;;;;;;;18.38;58.34;100344.97;5092822;28;20476;-74
2021/06/19 00:21:36;;;;;;;14.68;6.82;;;;;;;18.30;58.43;100336.16;5093942;28;20070;-74
2021/06/19 00:24:02;;;;;;;20.42;7.22;;;;;;;18.32;58.65;100348.41;5093974;28;20055;-71
2021/06/19 00:26:28;;;;;;;15.93;6.90;;;;;;;18.28;59.20;100347.09;5076110;28;20063;-74
2021/06/19 00:28:54;;;;;;;19.95;5.90;;;;;;;18.23;59.29;100348.69;5075937;28;20082;-75
2021/06/19 00:31:19;;;;;;;14.77;5.07;;;;;;;18.20;59.23;100349.91;5075622;28;20040;-73
2021/06/19 00:33:45;;;;;;;13.18;5.72;;;;;;;18.18;58.91;100351.13;5092541;28;20047;-74
2021/06/19 00:36:11;;;;;;;16.27;4.97;;;;;;;18.10;58.94;100329.72;5092540;28;20056;-74
2021/06/19 00:38:36;;;;;;;12.45;4.50;;;;;;;18.07;58.75;100339.00;5093880;28;20044;-74
2021/06/19 00:41:02;;;;;;;13.00;4.07;;;;;;;18.08;58.48;100339.84;5092683;28;20130;-74
2021/06/19 00:43:28;;;;;;;10.45;3.92;;;;;;;18.18;58.48;100351.97;5075586;28;20036;-74
2021/06/19 00:45:54;;;;;;;13.63;4.38;;;;;;;18.13;58.92;100340.94;5092591;28;20040;-74
2021/06/19 00:48:21;;;;;;;12.20;4.38;;;;;;;18.01;59.00;100329.00;5092475;28;20127;-73
2021/06/19 00:50:47;;;;;;;15.07;4.30;;;;;;;17.94;59.12;100316.50;5093372;28;20419;-74
2021/06/19 00:53:13;;;;;;;9.13;4.38;;;;;;;18.12;59.07;100360.78;5093279;28;20040;-74
2021/06/19 00:55:38;;;;;;;10.30;4.47;;;;;;;18.10;58.93;100357.44;5075907;28;20048;-73
2021/06/19 00:58:04;;;;;;;16.10;5.10;;;;;;;18.08;59.15;100354.09;5075423;28;20096;-73
2021/06/19 01:00:30;;;;;;;8.95;3.97;;;;;;;18.07;59.14;100357.81;5092176;28;20044;-74
2021/06/19 01:02:57;;;;;;;13.38;4.28;;;;;;;17.93;59.49;100333.66;5091966;28;20066;-74
2021/06/19 01:05:28;;;;;;;15.82;4.75;;;;;;;18.06;59.69;100358.00;5093418;28;20135;-74
2021/06/19 01:07:56;;;;;;;17.10;5.13;;;;;;;17.93;59.78;100344.38;5093405;28;20036;-73
2021/06/19 01:10:22;;;;;;;18.50;5.80;;;;;;;17.86;60.03;100338.97;5074888;28;20048;-74
2021/06/19 01:12:48;;;;;;;17.25;4.88;;;;;;;17.95;60.27;100353.13;5091706;28;20063;-74
2021/06/19 01:15:14;;;;;;;15.38;4.88;;;;;;;17.94;60.30;100356.84;5091865;28;20059;-74
2021/06/19 01:17:40;;;;;;;12.68;5.00;;;;;;;17.92;60.24;100358.88;5093108;28;20040;-74
2021/06/19 01:20:08;;;;;;;15.43;4.82;;;;;;;17.92;60.46;100358.88;5092458;28;20040;-73
2021/06/19 01:22:40;;;;;;;13.43;5.18;;;;;;;17.91;60.54;100360.72;5075052;28;20050;-74
2021/06/19 01:25:08;;;;;;;16.08;4.70;;;;;;;17.89;60.47;100364.63;5091852;28;20040;-71
2021/06/19 01:27:34;;;;;;;11.05;4.38;;;;;;;17.90;60.26;100366.28;5092594;28;20059;-74
2021/06/19 01:30:01;;;;;;;14.23;4.30;;;;;;;17.86;60.21;100356.94;5098745;28;20044;-74
2021/06/19 01:32:29;;;;;;;17.08;4.28;;;;;;;17.89;60.13;100362.78;5099969;28;20044;-74
2021/06/19 01:34:55;;;;;;;13.57;4.20;;;;;;;17.89;60.07;100368.16;5091153;28;20380;-73
2021/06/19 01:37:21;;;;;;;11.73;4.50;;;;;;;17.77;59.96;100348.16;5092462;28;20048;-74
2021/06/19 01:39:47;;;;;;;15.13;4.53;;;;;;;17.92;59.89;100375.84;5092491;28;20105;-74
2021/06/19 01:42:13;;;;;;;10.93;3.97;;;;;;;17.86;59.43;100356.94;5074236;28;20040;-74
2021/06/19 01:44:39;;;;;;;12.32;4.20;;;;;;;17.97;59.54;100376.13;5092582;28;20043;-74
2021/06/19 01:47:05;;;;;;;17.30;4.40;;;;;;;17.99;59.67;100378.63;5074485;28;20082;-73
2021/06/19 01:49:32;;;;;;;12.32;4.88;;;;;;;17.98;59.65;100380.47;5090877;28;20147;-73
2021/06/19 01:51:58;;;;;;;15.93;5.70;;;;;;;17.96;60.20;100382.50;5092441;28;20079;-73
2021/06/19 01:54:24;;;;;;;16.00;5.55;;;;;;;17.94;60.31;100379.16;5092459;28;20117;-74
2021/06/19 01:56:49;;;;;;;18.25;6.43;;;;;;;17.92;60.92;100375.00;5074097;28;20211;-73
2021/06/19 01:59:15;;;;;;;24.63;7.03;;;;;;;17.90;61.26;100377.88;5074079;28;20503;-74
2021/06/19 02:01:43;;;;;;;13.65;6.38;;;;;;;17.91;61.36;100376.03;5090734;28;20044;-74
2021/06/19 02:04:09;;;;;;;15.57;6.35;;;;;;;17.81;60.92;100365.56;5074017;28;20044;-73
2021/06/19 02:06:34;;;;;;;15.27;6.78;;;;;;;17.84;61.01;100369.72;5092493;28;20048;-74
2021/06/19 02:09:08;;;;;;;13.30;6.78;;;;;;;17.86;61.14;100381.97;5040574;28;20046;-74
2021/06/19 02:11:35;;;;;;;16.75;6.43;;;;;;;17.85;61.28;100382.97;5091873;28;20399;-74
2021/06/19 02:14:03;;;;;;;17.80;7.15;;;;;;;17.85;61.27;100391.03;5090844;28;20051;-74
2021/06/19 02:16:29;;;;;;;15.40;6.40;;;;;;;17.85;61.08;100388.34;5091954;28;20052;-74
2021/06/19 02:18:55;;;;;;;15.27;5.30;;;;;;;17.78;61.05;100375.84;5091767;28;20058;-73
2021/06/19 02:21:21;;;;;;;21.20;6.18;;;;;;;17.88;60.65;100389.84;5090784;28;20122;-74
2021/06/19 02:23:46;;;;;;;16.60;4.60;;;;;;;17.94;59.94;100386.41;5073745;28;20039;-75
2021/06/19 02:26:12;;;;;;;18.05;5.35;;;;;;;17.95;59.98;100386.22;5073357;28;20058;-75
2021/06/19 02:28:39;;;;;;;12.60;4.97;;;;;;;17.99;59.77;100392.88;5073792;28;20100;-75
2021/06/19 02:31:04;;;;;;;11.18;5.00;;;;;;;18.01;59.32;100390.84;5073774;28;20067;-74
2021/06/19 02:33:30;;;;;;;15.23;5.70;;;;;;;18.04;59.62;100395.84;5090905;28;20074;-74
2021/06/19 02:35:56;;;;;;;15.10;5.90;;;;;;;18.08;59.44;100393.63;5073337;28;20055;-74
2021/06/19 02:38:22;;;;;;;21.95;6.50;;;;;;;18.11;59.44;100395.94;5091233;28;20078;-74
2021/06/19 02:40:49;;;;;;;18.05;7.13;;;;;;;18.14;59.80;100403.63;5090297;28;20071;-75
2021/06/19 02:43:16;;;;;;;13.90;6.35;;;;;;;18.15;59.41;100397.19;5090243;28;20040;-74
2021/06/19 02:45:42;;;;;;;17.55;5.95;;;;;;;18.16;59.35;100394.31;5089954;28;20044;-75
2021/06/19 02:48:08;;;;;;;19.90;6.13;;;;;;;18.18;59.24;100399.53;5090340;28;20048;-74
2021/06/19 02:50:37;;;;;;;13.90;5.40;;;;;;;18.18;59.12;100397.66;5090093;28;20055;-75
2021/06/19 02:53:03;;;;;;;13.95;4.65;;;;;;;18.21;58.98;100391.06;5056941;28;20044;-74
2021/06/19 02:55:33;;;;;;;15.23;5.80;;;;;;;18.24;59.24;100394.22;5089844;28;20056;-74
2021/06/19 02:58:03;;;;;;;23.95;6.68;;;;;;;18.13;59.37;100377.72;5073083;28;20134;-74
2021/06/19 03:00:29;;;;;;;13.32;5.07;;;;;;;18.29;59.04;100399.03;5056338;28;20071;-75
2021/06/19 03:02:55;;;;;;;13.80;6.20;;;;;;;18.30;59.12;100395.31;5091160;28;20507;-74
2021/06/19 03:05:24;;;;;;;13.27;5.75;;;;;;;18.31;59.29;100395.13;5072809;28;20036;-74
2021/06/19 03:07:51;;;;;;;17.38;5.80;;;;;;;18.23;59.30;100381.81;5072917;28;20044;-74
2021/06/19 03:10:20;;;;;;;15.80;6.82;;;;;;;18.33;59.43;100394.94;5089809;28;20040;-74
2021/06/19 03:12:46;;;;;;;16.77;7.30;;;;;;;18.36;59.78;100394.56;5056221;28;20144;-72
2021/06/19 03:15:12;;;;;;;14.68;6.53;;;;;;;18.35;59.58;100396.44;5089687;28;20075;-69
2021/06/19 03:17:38;;;;;;;20.20;7.88;;;;;;;18.36;60.26;100395.41;5089710;28;20039;-74
2021/06/19 03:20:06;;;;;;;19.95;7.93;;;;;;;18.31;60.59;100394.31;5089719;28;20092;-74
2021/06/19 03:22:48;;;;;;;16.65;7.97;;;;;;;18.32;60.70;100395.97;5089722;28;20047;-74
2021/06/19 03:25:16;;;;;;;14.77;6.68;;;;;;;18.23;60.03;100383.66;5090525;28;20036;-73
2021/06/19 03:27:42;;;;;;;30.33;8.57;;;;;;;18.33;60.81;100394.94;5089613;28;20047;-70
2021/06/19 03:30:09;;;;;;;20.02;8.27;;;;;;;18.33;60.90;100400.31;5072865;28;20092;-74
2021/06/19 03:32:37;;;;;;;21.38;9.23;;;;;;;18.30;61.51;100398.84;5089200;28;20047;-74
2021/06/19 03:35:04;;;;;;;21.85;10.00;;;;;;;18.28;62.51;100392.00;5089284;28;20082;-74
2021/06/19 03:37:30;;;;;;;23.02;10.05;;;;;;;18.25;62.63;100397.75;5072426;28;20040;-73
2021/06/19 03:39:55;;;;;;;23.05;11.15;;;;;;;18.25;63.11;100403.94;5090760;28;20052;-73
2021/06/19 03:42:21;;;;;;;26.05;8.65;;;;;;;18.27;62.23;100395.69;5055682;28;20040;-74
2021/06/19 03:44:47;;;;;;;22.70;9.25;;;;;;;18.33;62.32;100405.69;5094244;28;20040;-74
2021/06/19 03:47:13;;;;;;;20.58;9.25;;;;;;;18.37;62.13;100399.78;5093836;28;20044;-72
2021/06/19 03:49:38;;;;;;;20.60;10.38;;;;;;;18.40;62.63;100403.97;5093608;28;20079;-74
2021/06/19 03:52:04;;;;;;;20.02;8.90;;;;;;;18.45;62.00;100405.03;5093332;28;20039;-74
2021/06/19 03:54:30;;;;;;;20.25;10.07;;;;;;;18.54;62.18;100404.94;5094557;28;20048;-74
2021/06/19 03:56:56;;;;;;;23.60;11.13;;;;;;;18.61;62.25;100403.97;5093085;28;20036;-73
2021/06/19 03:59:21;;;;;;;17.88;9.48;;;;;;;18.64;62.08;100400.06;5075981;28;20039;-74
2021/06/19 04:01:47;;;;;;;27.52;9.65;;;;;;;18.71;62.17;100404.50;5094638;28;20127;-74
2021/06/19 04:04:13;;;;;;;22.02;9.50;;;;;;;18.67;62.17;100384.38;5094595;28;20060;-71
2021/06/19 04:06:39;;;;;;;25.85;9.57;;;;;;;18.83;62.43;100407.50;5094329;28;20105;-74
2021/06/19 04:09:05;;;;;;;32.67;10.82;;;;;;;18.79;62.49;100387.41;5076473;28;20089;-73
2021/06/19 04:11:30;;;;;;;20.45;10.63;;;;;;;18.91;62.83;100404.69;5093041;28;20040;-73
2021/06/19 04:13:56;;;;;;;23.30;11.20;;;;;;;18.95;63.04;100400.59;5093014;28;20048;-73
2021/06/19 04:16:22;;;;;;;18.65;10.68;;;;;;;18.90;63.09;100386.88;5092935;28;20043;-74
2021/06/19 04:18:47;;;;;;;23.23;9.80;;;;;;;19.08;62.87;100406.91;5076183;28;20058;-74
2021/06/19 04:21:13;;;;;;;25.60;9.82;;;;;;;19.06;63.17;100392.84;5093100;28;20051;-74
2021/06/19 04:23:39;;;;;;;21.02;9.07;;;;;;;19.25;63.10;100413.69;5092587;28;20043;-74
2021/06/19 04:26:05;;;;;;;19.77;8.48;;;;;;;19.33;62.80;100404.66;5076126;28;20163;-74
2021/06/19 04:28:31;;;;;;;17.58;8.18;;;;;;;19.35;62.66;100397.22;5042551;28;20527;-75
2021/06/19 04:30:59;;;;;;;15.25;8.52;;;;;;;19.47;62.51;100399.19;5092830;28;20039;-74
2021/06/19 04:33:26;;;;;;;16.13;7.72;;;;;;;19.64;62.30;100405.94;5093059;28;20051;-74
2021/06/19 04:35:52;;;;;;;20.55;7.65;;;;;;;19.78;61.89;100413.09;5093980;28;20515;-74
2021/06/19 04:38:17;;;;;;;23.38;7.80;;;;;;;19.90;61.81;100416.88;5075763;28;20048;-74
2021/06/19 04:43:12;;;;;;;14.80;5.63;;;;;;;20.14;60.33;100414.75;5092738;28;20075;-74
2021/06/19 04:45:38;;;;;;;13.10;5.47;;;;;;;20.23;60.19;100408.16;5094837;28;20094;-74
2021/06/19 04:48:06;;;;;;;15.88;6.20;;;;;;;20.34;59.85;100408.41;5082970;28;20545;-74
2021/06/19 04:50:33;;;;;;;10.27;5.53;;;;;;;20.48;59.43;100411.97;5097632;28;20119;-74
2021/06/19 04:52:59;;;;;;;11.07;4.45;;;;;;;20.49;57.91;100394.75;5092213;28;20040;-74
2021/06/19 04:55:26;;;;;;;11.02;4.22;;;;;;;20.69;56.57;100409.97;5091370;28;20048;-74
2021/06/19 04:57:57;;;;;;;18.33;4.50;;;;;;;20.81;56.45;100412.88;5093548;28;20093;-74
2021/06/19 05:00:27;;;;;;;15.48;4.53;;;;;;;20.84;56.45;100398.97;5058602;28;20043;-75
2021/06/19 05:02:53;;;;;;;10.63;4.45;;;;;;;21.02;55.78;100412.75;5093267;28;20051;-74
2021/06/19 05:05:20;;;;;;;7.40;3.50;;;;;;;21.15;54.84;100410.03;5091982;28;20504;-74
2021/06/19 05:07:46;;;;;;;7.20;3.35;;;;;;;21.25;54.51;100403.19;5092412;28;20036;-74
2021/06/19 05:10:13;;;;;;;13.32;4.80;;;;;;;21.34;54.95;100407.34;5075082;28;20040;-74
2021/06/19 05:12:47;;;;;;;13.57;3.13;;;;;;;21.39;53.04;100382.38;5074776;28;20090;-74
2021/06/19 05:15:17;;;;;;;10.02;2.55;;;;;;;21.50;50.88;100381.75;5093014;28;20415;-74
2021/06/19 05:17:43;;;;;;;5.68;2.20;;;;;;;21.64;50.30;100383.38;5092211;28;20040;-74
2021/06/19 05:20:09;;;;;;;8.60;2.15;;;;;;;21.84;49.11;100394.19;5091441;28;20048;-74
2021/06/19 05:22:36;;;;;;;6.93;1.92;;;;;;;21.94;49.06;100397.28;5091546;28;20129;-74
2021/06/19 05:25:04;;;;;;;9.55;1.90;;;;;;;22.00;48.75;100381.06;5092607;28;20552;-74
2021/06/19 05:27:30;;;;;;;6.80;2.00;;;;;;;22.29;46.78;100385.91;5091352;28;20047;-73
2021/06/19 05:29:55;;;;;;;8.13;2.30;;;;;;;22.49;46.86;100385.81;5092573;28;20039;-73
2021/06/19 05:32:22;;;;;;;10.85;1.77;;;;;;;22.65;45.74;100388.88;5091255;28;20112;-74
2021/06/19 05:34:48;;;;;;;4.78;1.80;;;;;;;22.70;46.66;100386.34;5058099;28;20046;-74
2021/06/19 05:37:14;;;;;;;10.23;1.70;;;;;;;22.72;44.29;100378.84;5074371;28;20424;-74
2021/06/19 05:39:40;;;;;;;6.90;1.67;;;;;;;22.88;44.70;100397.25;5074211;28;20389;-74
2021/06/19 05:42:06;;;;;;;7.32;2.00;;;;;;;22.77;43.46;100354.59;5091502;28;20442;-74
2021/06/19 05:44:33;;;;;;;7.07;2.10;;;;;;;23.13;43.10;100397.28;5074159;28;20040;-74
2021/06/19 05:46:58;;;;;;;8.45;2.00;;;;;;;23.24;42.54;100386.59;5092419;28;20071;-74
2021/06/19 05:49:24;;;;;;;4.88;1.90;;;;;;;23.25;42.86;100373.84;5091171;28;20495;-73
2021/06/19 05:51:50;;;;;;;11.00;1.92;;;;;;;23.35;42.25;100393.16;5074282;28;20039;-70
2021/06/19 05:54:16;;;;;;;5.63;1.67;;;;;;;23.35;42.95;100386.91;5091184;28;20097;-74
2021/06/19 05:56:42;;;;;;;6.88;1.73;;;;;;;23.37;43.29;100392.94;5074248;28;20052;-74
2021/06/19 05:59:07;;;;;;;11.45;1.98;;;;;;;23.38;43.77;100384.59;5091042;28;20054;-74
2021/06/19 06:01:33;;;;;;;13.52;1.90;;;;;;;23.41;43.12;100380.59;5090722;28;20083;-74
2021/06/19 06:03:59;;;;;;;15.80;1.95;;;;;;;23.41;42.72;100380.59;5091016;28;20082;-74
2021/06/19 06:06:26;;;;;;;10.80;2.00;;;;;;;23.45;42.58;100389.97;5073248;28;20477;-74
2021/06/19 06:08:52;;;;;;;10.57;2.45;;;;;;;23.26;42.43;100349.22;5091670;28;20138;-72
2021/06/19 06:11:18;;;;;;;6.10;1.83;;;;;;;23.51;42.69;100383.63;5092162;28;20127;-75
2021/06/19 06:13:43;;;;;;;6.82;1.80;;;;;;;23.57;42.84;100380.03;5073672;28;20494;-75
2021/06/19 06:16:09;;;;;;;10.52;1.83;;;;;;;23.59;42.98;100367.09;5073727;28;20048;-74
2021/06/19 06:18:36;;;;;;;6.10;1.80;;;;;;;23.70;42.17;100371.75;5073281;28;20126;-75
2021/06/19 06:21:04;;;;;;;9.93;1.60;;;;;;;23.76;42.16;100381.69;5090883;28;20043;-74
2021/06/19 06:23:30;;;;;;;5.10;1.73;;;;;;;23.81;41.82;100385.41;5090575;28;20101;-74
2021/06/19 06:25:56;;;;;;;9.07;2.20;;;;;;;23.87;42.25;100378.22;5090372;28;20128;-74
2021/06/19 06:28:22;;;;;;;3.50;1.88;;;;;;;23.84;41.75;100367.84;5090537;28;20146;-72
2021/06/19 06:30:48;;;;;;;4.00;1.85;;;;;;;24.03;41.94;100378.47;5073696;28;20131;-75
2021/06/19 06:33:14;;;;;;;6.95;1.95;;;;;;;24.11;41.60;100371.94;5073815;28;20048;-76
2021/06/19 06:35:40;;;;;;;8.30;2.00;;;;;;;24.18;41.06;100383.53;5073220;28;20047;-74
2021/06/19 06:38:06;;;;;;;6.97;2.05;;;;;;;24.29;40.78;100382.75;5091486;28;20119;-75
2021/06/19 06:40:32;;;;;;;6.85;1.77;;;;;;;24.35;40.59;100376.41;5090305;28;20044;-75
2021/06/19 06:42:59;;;;;;;9.80;1.85;;;;;;;24.45;41.50;100368.53;5073605;28;20434;-75
2021/06/19 06:45:25;;;;;;;5.75;2.10;;;;;;;24.54;40.60;100369.91;5091328;28;20466;-74
2021/06/19 06:47:51;;;;;;;7.13;2.55;;;;;;;24.62;40.57;100369.53;5073294;28;20055;-75
2021/06/19 06:50:17;;;;;;;9.07;1.92;;;;;;;24.68;41.02;100371.38;5073468;28;20051;-75
2021/06/19 06:52:43;;;;;;;8.35;1.92;;;;;;;24.84;40.30;100376.16;5090166;28;20047;-75
2021/06/19 06:55:11;;;;;;;6.35;1.80;;;;;;;24.86;38.57;100365.88;5073470;28;20040;-75
2021/06/19 06:57:37;;;;;;;2.42;1.58;;;;;;;25.01;38.65;100366.28;5091044;28;20082;-75
2021/06/19 07:00:05;;;;;;;4.82;1.70;;;;;;;25.08;38.12;100347.13;5056443;28;20424;-75
2021/06/19 07:02:31;;;;;;;5.50;1.80;;;;;;;25.26;38.03;100363.34;5089946;28;20568;-75
2021/06/19 07:04:57;;;;;;;4.75;2.10;;;;;;;25.32;37.78;100374.13;5056480;28;20131;-74
2021/06/19 07:07:23;;;;;;;10.50;2.00;;;;;;;25.34;37.33;100379.34;5089987;28;20048;-74
2021/06/19 07:09:48;;;;;;;12.77;2.08;;;;;;;25.31;37.54;100366.19;5073164;28;20466;-75
2021/06/19 07:12:14;;;;;;;8.45;1.80;;;;;;;25.31;37.08;100363.47;5090015;28;20052;-75
2021/06/19 07:14:40;;;;;;;7.80;2.20;;;;;;;25.38;37.08;100356.03;5072901;28;20415;-74
2021/06/19 07:17:09;;;;;;;3.75;1.73;;;;;;;25.41;37.09;100344.69;5072967;28;20077;-74
2021/06/19 07:19:35;;;;;;;6.47;2.00;;;;;;;25.62;36.51;100358.50;5072470;28;20051;-74
2021/06/19 07:22:01;;;;;;;9.65;1.80;;;;;;;26.04;36.25;100362.75;5073030;28;20044;-73
2021/06/19 07:24:27;;;;;;;17.92;1.92;;;;;;;26.40;35.26;100359.66;5091133;28;20047;-73
2021/06/19 07:26:53;;;;;;;8.82;2.30;;;;;;;26.72;34.42;100346.38;5091256;28;20040;-73
2021/06/19 07:29:18;;;;;;;4.82;1.75;;;;;;;27.11;34.02;100355.50;5089529;28;20051;-74
2021/06/19 07:31:44;;;;;;;6.88;1.90;;;;;;;27.74;33.41;100350.47;5055979;28;20040;-74
2021/06/19 07:34:10;;;;;;;8.30;2.03;;;;;;;28.67;32.26;100356.56;5072763;28;20131;-74
2021/06/19 07:36:40;;;;;;;6.50;2.00;;;;;;;29.66;30.69;100360.44;5072711;28;20114;-75
2021/06/19 07:39:05;;;;;;;7.13;2.10;;;;;;;30.85;28.42;100314.53;5073216;28;20534;-74
2021/06/19 07:41:31;;;;;;;8.57;1.80;;;;;;;32.23;25.80;100356.88;5072478;28;20150;-74
2021/06/19 07:43:57;;;;;;;5.03;1.80;;;;;;;33.09;25.04;100329.63;5072578;28;20040;-73
2021/06/19 07:46:23;;;;;;;5.38;1.75;;;;;;;34.10;23.34;100342.09;5073108;28;20048;-74
2021/06/19 07:48:49;;;;;;;5.32;1.80;;;;;;;35.55;21.34;100341.75;5055735;28;20471;-74
2021/06/19 07:51:15;;;;;;;7.45;1.60;;;;;;;36.84;20.45;100341.25;5072664;28;20543;-75
2021/06/19 07:53:41;;;;;;;5.47;1.73;;;;;;;38.19;18.32;100340.41;5072521;28;20032;-75
2021/06/19 07:56:06;;;;;;;9.10;2.20;;;;;;;39.84;16.48;100327.69;5089361;28;20052;-75
2021/06/19 07:58:32;;;;;;;4.72;1.70;;;;;;;40.12;15.69;100339.94;5072409;28;20123;-75
2021/06/19 08:00:58;;;;;;;9.15;1.80;;;;;;;40.43;15.80;100336.84;5090927;28;20127;-75
2021/06/19 08:03:24;;;;;;;11.25;1.98;;;;;;;39.87;15.71;100350.06;5073139;28;20044;-75
2021/06/19 08:05:49;;;;;;;5.78;1.77;;;;;;;40.23;15.46;100333.66;5090626;28;20052;-75
2021/06/19 08:08:15;;;;;;;9.27;1.83;;;;;;;39.87;15.78;100341.72;5092185;28;20048;-75
2021/06/19 08:10:41;;;;;;;7.82;2.13;;;;;;;39.74;16.02;100336.34;5090451;28;20044;-75
2021/06/19 08:13:07;;;;;;;4.88;1.70;;;;;;;40.65;15.29;100330.91;5072728;28;20446;-75
2021/06/19 08:15:34;;;;;;;10.80;1.77;;;;;;;42.49;13.78;100323.81;5089040;28;20044;-75
2021/06/19 08:18:00;;;;;;;9.70;1.80;;;;;;;43.42;12.30;100345.72;5072862;28;20043;-74
2021/06/19 08:20:26;;;;;;;5.25;1.60;;;;;;;42.88;13.13;100331.41;5089161;28;20488;-74
2021/06/19 08:22:52;;;;;;;8.27;2.20;;;;;;;41.78;14.64;100323.50;5089023;28;20062;-74
2021/06/19 08:25:18;;;;;;;9.68;1.75;;;;;;;42.20;14.30;100312.09;5088970;28;20059;-75
2021/06/19 08:27:44;;;;;;;5.85;1.55;;;;;;;42.46;13.78;100312.53;5090114;28;20427;-74
2021/06/19 08:30:11;;;;;;;5.82;1.60;;;;;;;43.18;13.26;100306.69;5073082;28;20096;-74
2021/06/19 08:32:37;;;;;;;7.18;1.73;;;;;;;43.42;12.24;100317.72;5059359;28;20058;-74
2021/06/19 08:35:04;;;;;;;3.40;1.38;;;;;;;43.33;11.84;100299.50;5092195;28;20043;-74
2021/06/19 08:37:30;;;;;;;10.88;1.90;;;;;;;42.90;12.49;100305.91;5093810;28;20043;-73
2021/06/19 08:39:57;;;;;;;3.92;1.58;;;;;;;42.68;13.30;100303.63;5075940;28;20056;-73
2021/06/19 08:42:25;;;;;;;8.93;1.47;;;;;;;43.58;12.23;100307.38;5093644;28;20044;-75
2021/06/19 08:44:51;;;;;;;7.55;2.92;;;;;;;44.47;11.91;100300.72;5092220;28;20839;-75
2021/06/19 08:47:17;;;;;;;5.90;1.80;;;;;;;43.95;11.91;100305.91;5092489;28;20039;-75
2021/06/19 08:49:45;;;;;;;9.80;2.08;;;;;;;43.10;12.11;100297.28;5092245;28;20040;-75
2021/06/19 08:52:11;;;;;;;5.10;2.00;;;;;;;42.43;12.46;100282.50;5092150;28;20093;-74
2021/06/19 08:54:39;;;;;;;7.75;1.63;;;;;;;42.06;12.42;100289.34;5092031;28;20043;-74
2021/06/19 08:57:10;;;;;;;8.30;3.63;;;;;;;42.66;12.59;100278.00;5093581;28;20077;-74
2021/06/19 08:59:37;;;;;;;6.45;2.15;;;;;;;43.18;12.24;100276.75;5093293;28;20304;-74
2021/06/19 09:02:04;;;;;;;6.03;1.70;;;;;;;44.13;12.02;100293.16;5058382;28;20036;-74
2021/06/19 09:04:30;;;;;;;9.13;1.60;;;;;;;44.57;11.40;100297.34;5092228;28;20036;-75
2021/06/19 09:06:56;;;;;;;12.40;1.90;;;;;;;44.58;11.68;100278.53;5075385;28;20036;-74
2021/06/19 09:09:22;;;;;;;11.75;1.65;;;;;;;44.55;11.38;100282.06;5075074;28;20044;-75
2021/06/19 09:11:52;;;;;;;8.93;1.70;;;;;;;43.95;11.66;100280.72;5092828;28;20071;-74
2021/06/19 09:14:23;;;;;;;5.47;1.73;;;;;;;43.85;11.76;100275.66;5092831;28;20047;-76
2021/06/19 09:16:58;;;;;;;4.28;1.55;;;;;;;44.81;11.05;100270.22;5074519;28;20143;-75
2021/06/19 09:19:37;;;;;;;8.75;1.60;;;;;;;45.29;11.16;100277.94;5057839;28;20131;-76
2021/06/19 09:22:21;;;;;;;8.88;1.70;;;;;;;44.79;11.12;100269.78;5092691;28;20070;-75
2021/06/19 09:24:49;;;;;;;4.32;1.50;;;;;;;44.13;11.51;100267.13;5092769;28;20040;-76
2021/06/19 09:27:38;;;;;;;10.23;1.90;;;;;;;43.74;11.80;100257.78;5091356;28;20051;-76
2021/06/19 09:30:11;;;;;;;16.10;2.20;;;;;;;44.36;12.17;100256.84;5092460;28;20286;-75
2021/06/19 09:32:45;;;;;;;5.43;1.40;;;;;;;45.06;10.78;100257.47;5092450;28;20058;-75
2021/06/19 09:35:20;;;;;;;6.38;1.50;;;;;;;43.83;11.53;100252.81;5091028;28;20051;-75
2021/06/19 09:37:48;;;;;;;7.45;1.60;;;;;;;44.01;11.55;100251.25;5090968;28;20079;-74
2021/06/19 09:40:22;;;;;;;6.90;1.80;;;;;;;44.53;10.90;100262.81;5092597;28;20063;-73
2021/06/19 09:42:49;;;;;;;5.50;1.30;;;;;;;45.16;10.43;100257.69;5090649;28;20574;-75
2021/06/19 09:45:23;;;;;;;5.35;1.58;;;;;;;45.57;10.03;100254.00;5074018;28;20066;-75
2021/06/19 09:47:50;;;;;;;3.65;1.52;;;;;;;45.77;9.89;100264.00;5091152;28;20117;-75
2021/06/19 09:50:20;;;;;;;3.75;1.55;;;;;;;44.97;10.56;100240.06;5057296;28;20143;-76
2021/06/19 09:52:46;;;;;;;8.25;3.08;;;;;;;45.56;10.59;100249.59;5073981;28;20048;-75
2021/06/19 09:55:13;;;;;;;4.00;1.50;;;;;;;45.25;10.50;100249.03;5074075;28;20070;-75
2021/06/19 09:57:47;;;;;;;9.55;1.60;;;;;;;46.05;10.22;100253.19;5057292;28;20058;-75
2021/06/19 10:00:15;;;;;;;3.15;1.55;;;;;;;45.32;10.62;100238.72;5090800;28;20051;-74
2021/06/19 10:02:41;;;;;;;5.10;1.48;;;;;;;44.59;10.65;100252.13;5090919;28;20114;-75
2021/06/19 10:05:08;;;;;;;3.10;1.25;;;;;;;44.77;10.24;100227.25;5090951;28;20364;-75
2021/06/19 10:07:35;;;;;;;6.65;1.30;;;;;;;45.99;10.00;100235.03;5090567;28;20048;-70
2021/06/19 10:10:09;;;;;;;6.50;1.40;;;;;;;47.57;9.27;100227.59;5090734;28;20074;-74
2021/06/19 10:12:37;;;;;;;5.53;1.73;;;;;;;47.43;9.27;100231.09;5090761;28;20047;-72
2021/06/19 10:15:11;;;;;;;9.68;1.58;;;;;;;47.27;8.88;100239.00;5074125;28;20040;-75
2021/06/19 10:17:44;;;;;;;4.43;1.20;;;;;;;48.19;8.45;100215.13;5057061;28;20040;-74
2021/06/19 10:20:12;;;;;;;5.22;1.40;;;;;;;46.60;9.50;100231.84;5091759;28;20067;-74
2021/06/19 10:22:40;;;;;;;8.95;1.40;;;;;;;46.56;9.80;100225.38;5090734;28;20549;-75
2021/06/19 10:25:12;;;;;;;4.25;1.60;;;;;;;46.17;9.77;100216.44;5073691;28;20051;-72
2021/06/19 10:27:43;;;;;;;7.13;1.58;;;;;;;45.34;10.44;100219.53;5074027;28;20426;-75
2021/06/19 10:30:11;;;;;;;5.75;1.48;;;;;;;46.93;9.39;100212.16;5073554;28;20047;-74
2021/06/19 10:32:51;;;;;;;9.30;2.28;;;;;;;47.52;8.33;100209.03;5091575;28;20044;-75
2021/06/19 10:35:21;;;;;;;11.32;1.88;;;;;;;46.31;9.54;100207.38;5090324;28;20059;-74
2021/06/19 10:37:49;;;;;;;6.25;1.58;;;;;;;45.56;9.60;100199.06;5091389;28;20048;-75
2021/06/19 10:40:21;;;;;;;3.67;1.50;;;;;;;45.52;9.97;100214.22;5056475;28;20043;-74
2021/06/19 10:42:48;;;;;;;3.20;1.58;;;;;;;43.90;10.99;100182.19;5073408;28;20047;-74
2021/06/19 10:45:23;;;;;;;4.57;1.60;;;;;;;43.69;10.47;100192.91;5073296;28;20065;-74
2021/06/19 10:48:06;;;;;;;10.10;2.30;;;;;;;43.49;11.13;100194.81;5089964;28;20499;-74
2021/06/19 10:50:34;;;;;;;5.32;2.13;;;;;;;43.38;11.42;100192.91;5090260;28;20123;-73
2021/06/19 10:53:07;;;;;;;4.65;2.20;;;;;;;43.69;11.97;100188.09;5089575;28;20405;-74
2021/06/19 10:55:55;;;;;;;6.38;1.52;;;;;;;41.37;13.43;100189.81;5056646;28;20043;-74
2021/06/19 10:58:26;;;;;;;5.15;1.63;;;;;;;40.18;14.96;100191.09;5056857;28;20036;-74
2021/06/19 11:01:00;;;;;;;7.15;1.67;;;;;;;39.52;15.76;100181.69;5056345;28;20052;-74
2021/06/19 11:03:44;;;;;;;9.43;4.47;;;;;;;39.10;15.80;100171.59;5090099;28;20051;-74
2021/06/19 11:06:29;;;;;;;13.82;2.75;;;;;;;38.50;16.21;100160.59;5089868;28;20040;-73
2021/06/19 11:09:26;;;;;;;8.40;4.22;;;;;;;38.96;15.78;100173.75;5089464;28;20076;-73
2021/06/19 11:12:01;;;;;;;3.28;1.80;;;;;;;38.51;16.35;100189.19;5058012;28;20139;-74
2021/06/19 11:14:42;;;;;;;5.45;1.55;;;;;;;36.51;18.47;100176.50;5089465;28;20051;-73
2021/06/19 11:17:14;;;;;;;8.50;1.92;;;;;;;35.32;20.39;100179.72;5089828;28;20051;-73
2021/06/19 11:19:51;;;;;;;5.50;1.70;;;;;;;34.43;21.14;100171.97;5089323;28;20040;-72
2021/06/19 11:22:42;;;;;;;3.63;1.65;;;;;;;33.81;21.70;100169.59;5072744;28;20043;-74
2021/06/19 11:25:41;;;;;;;10.15;1.90;;;;;;;33.36;22.78;100156.41;5090852;28;20059;-73
2021/06/19 11:28:10;;;;;;;10.40;1.60;;;;;;;32.26;22.78;100159.13;5091061;28;20044;-73